createdAt,value
2016-11-28T00:00:50.694Z,-0.56
2016-11-28T00:02:01.676Z,-0.56
2016-11-28T00:03:12.660Z,-0.66
2016-11-28T00:04:23.641Z,-0.62
2016-11-28T00:05:34.821Z,-0.59
2016-11-28T00:06:45.801Z,-0.67
2016-11-28T00:07:56.784Z,-0.69
2016-11-28T00:09:07.767Z,-0.59
2016-11-28T00:10:18.796Z,-0.62
2016-11-28T00:11:29.789Z,-0.69
2016-11-28T00:12:40.780Z,-0.52
2016-11-28T00:13:51.757Z,-0.55
2016-11-28T00:15:03.138Z,-0.64
2016-11-28T00:16:14.117Z,-0.66
2016-11-28T00:17:25.296Z,-0.55
2016-11-28T00:18:36.282Z,-0.56
2016-11-28T00:19:47.462Z,-0.58
2016-11-28T00:20:58.688Z,-0.66
2016-11-28T00:22:09.674Z,-0.59
2016-11-28T00:23:20.655Z,-0.61
2016-11-28T00:24:31.836Z,-0.54
2016-11-28T00:25:42.812Z,-0.55
2016-11-28T00:26:53.799Z,-0.61
2016-11-28T00:28:04.778Z,-0.73
2016-11-28T00:29:15.768Z,-0.66
2016-11-28T00:30:26.962Z,-0.66
2016-11-28T00:31:38.144Z,-0.67
2016-11-28T00:32:49.131Z,-0.69
2016-11-28T00:34:00.144Z,-0.67
2016-11-28T00:35:11.133Z,-0.77
2016-11-28T00:36:22.118Z,-0.73
2016-11-28T00:37:33.106Z,-0.92
2016-11-28T00:38:44.301Z,-0.95
2016-11-28T00:39:55.284Z,-0.99
2016-11-28T00:41:06.720Z,-0.87
2016-11-28T00:42:17.733Z,-0.95
2016-11-28T00:43:28.715Z,-0.95
2016-11-28T00:44:39.697Z,-1.04
2016-11-28T00:45:50.674Z,-0.96
2016-11-28T00:47:01.704Z,-1.01
2016-11-28T00:48:12.689Z,-1.03
2016-11-28T00:49:23.878Z,-0.98
2016-11-28T00:50:35.068Z,-0.98
2016-11-28T00:51:46.043Z,-1.03
2016-11-28T00:52:57.085Z,-0.91
2016-11-28T00:54:08.061Z,-0.91
2016-11-28T00:55:19.043Z,-0.92
2016-11-28T00:56:30.017Z,-0.93
2016-11-28T00:57:41.006Z,-0.96
2016-11-28T00:58:52.037Z,-0.92
2016-11-28T01:00:03.017Z,-0.96
2016-11-28T01:01:13.988Z,-0.93
2016-11-28T01:02:24.979Z,-0.93
2016-11-28T01:03:35.968Z,-0.99
2016-11-28T01:04:46.998Z,-1.01
2016-11-28T01:05:58.232Z,-0.93
2016-11-28T01:07:09.222Z,-1.01
2016-11-28T01:08:20.212Z,-0.96
2016-11-28T01:09:31.392Z,-0.99
2016-11-28T01:10:42.371Z,-0.98
2016-11-28T01:11:53.350Z,-1.01
2016-11-28T01:13:04.336Z,-0.95
2016-11-28T01:14:15.343Z,-0.95
2016-11-28T01:15:26.342Z,-0.96
2016-11-28T01:16:37.325Z,-1.04
2016-11-28T01:17:48.342Z,-0.99
2016-11-28T01:18:59.345Z,-1.04
2016-11-28T01:20:10.375Z,-1.01
2016-11-28T01:21:21.358Z,-1.06
2016-11-28T01:22:32.342Z,-1.06
2016-11-28T01:23:43.321Z,-1.03
2016-11-28T01:24:54.304Z,-1.16
2016-11-28T01:26:05.360Z,-1.1
2016-11-28T01:27:16.549Z,-1.06
2016-11-28T01:28:27.535Z,-1.13
2016-11-28T01:29:38.515Z,-1.09
2016-11-28T01:30:49.494Z,-1.11
2016-11-28T01:32:00.522Z,-1.06
2016-11-28T01:33:11.504Z,-1.04
2016-11-28T01:34:22.685Z,-1.13
2016-11-28T01:35:33.670Z,-1.03
2016-11-28T01:36:44.657Z,-1.1
2016-11-28T01:37:55.891Z,-1.07
2016-11-28T01:39:06.874Z,-1.17
2016-11-28T01:40:18.050Z,-1.1
2016-11-28T01:41:29.031Z,-1.14
2016-11-28T01:42:40.012Z,-1.1
2016-11-28T01:43:51.447Z,-1.09
2016-11-28T01:45:02.438Z,-1.14
2016-11-28T01:46:13.416Z,-1.19
2016-11-28T01:47:24.399Z,-1.19
2016-11-28T01:48:35.384Z,-1.1
2016-11-28T01:49:46.415Z,-1.16
2016-11-28T01:50:57.389Z,-1.09
2016-11-28T01:52:08.396Z,-1.09
2016-11-28T01:53:19.383Z,-1.19
2016-11-28T01:54:30.368Z,-1.17
2016-11-28T01:55:41.349Z,-1.16
2016-11-28T01:56:52.539Z,-1.21
2016-11-28T01:58:03.519Z,-1.11
2016-11-28T01:59:14.508Z,-1.11
2016-11-28T02:00:25.682Z,-1.14
2016-11-28T02:01:36.666Z,-1.21
2016-11-28T02:02:47.650Z,-1.1
2016-11-28T02:03:58.662Z,-1.19
2016-11-28T02:05:09.645Z,-1.16
2016-11-28T02:06:20.632Z,-1.16
2016-11-28T02:07:31.611Z,-1.11
2016-11-28T02:08:42.580Z,-1.14
2016-11-28T02:09:53.565Z,-1.11
2016-11-28T02:11:04.562Z,-1.14
2016-11-28T02:12:15.551Z,-1.14
2016-11-28T02:13:26.532Z,-1.14
2016-11-28T02:14:37.516Z,-1.11
2016-11-28T02:15:48.700Z,-1.16
2016-11-28T02:16:59.909Z,-1.19
2016-11-28T02:18:10.885Z,-1.24
2016-11-28T02:19:22.061Z,-1.24
2016-11-28T02:20:33.044Z,-1.28
2016-11-28T02:21:44.027Z,-1.27
2016-11-28T02:22:55.013Z,-1.28
2016-11-28T02:24:05.985Z,-1.21
2016-11-28T02:25:16.983Z,-1.3
2016-11-28T02:26:27.970Z,-1.27
2016-11-28T02:27:39.150Z,-1.21
2016-11-28T02:28:50.125Z,-1.28
2016-11-28T02:30:01.114Z,-1.28
2016-11-28T02:31:12.287Z,-1.32
2016-11-28T02:32:23.272Z,-1.3
2016-11-28T02:33:34.459Z,-1.3
2016-11-28T02:34:45.444Z,-1.34
2016-11-28T02:35:56.423Z,-1.34
2016-11-28T02:37:07.402Z,-1.31
2016-11-28T02:38:18.389Z,-1.34
2016-11-28T02:39:29.366Z,-1.28
2016-11-28T02:40:40.542Z,-1.35
2016-11-28T02:41:51.526Z,-1.35
2016-11-28T02:43:02.512Z,-1.42
2016-11-28T02:44:13.700Z,-1.22
2016-11-28T02:45:24.684Z,-1.3
2016-11-28T02:46:35.870Z,-1.28
2016-11-28T02:47:46.859Z,-1.3
2016-11-28T02:48:58.039Z,-1.37
2016-11-28T02:50:09.072Z,-1.32
2016-11-28T02:51:20.302Z,-1.38
2016-11-28T02:52:31.283Z,-1.31
2016-11-28T02:53:42.263Z,-1.32
2016-11-28T02:54:53.263Z,-1.43
2016-11-28T02:56:04.458Z,-1.45
2016-11-28T02:57:15.440Z,-1.46
2016-11-28T02:58:26.419Z,-1.5
2016-11-28T02:59:37.435Z,-1.53
2016-11-28T03:00:48.415Z,-1.58
2016-11-28T03:01:59.398Z,-1.49
2016-11-28T03:03:10.381Z,-1.5
2016-11-28T03:04:21.361Z,-1.48
2016-11-28T03:05:32.341Z,-1.56
2016-11-28T03:06:43.328Z,-1.55
2016-11-28T03:07:54.309Z,-1.45
2016-11-28T03:09:05.295Z,-1.49
2016-11-28T03:10:16.280Z,-1.45
2016-11-28T03:11:27.269Z,-1.43
2016-11-28T03:12:38.447Z,-1.48
2016-11-28T03:13:49.428Z,-1.48
2016-11-28T03:15:00.413Z,-1.56
2016-11-28T03:16:11.397Z,-1.49
2016-11-28T03:17:22.379Z,-1.42
2016-11-28T03:18:33.427Z,-1.43
2016-11-28T03:19:44.407Z,-1.53
2016-11-28T03:20:55.400Z,-1.49
2016-11-28T03:22:06.387Z,-1.56
2016-11-28T03:23:17.362Z,-1.56
2016-11-28T03:24:28.346Z,-1.53
2016-11-28T03:25:39.534Z,-1.49
2016-11-28T03:26:50.520Z,-1.53
2016-11-28T03:28:01.498Z,-1.61
2016-11-28T03:29:12.483Z,-1.55
2016-11-28T03:30:23.516Z,-1.5
2016-11-28T03:31:34.695Z,-1.53
2016-11-28T03:32:45.682Z,-1.58
2016-11-28T03:33:56.655Z,-1.53
2016-11-28T03:35:07.844Z,-1.58
2016-11-28T03:36:18.823Z,-1.64
2016-11-28T03:37:29.808Z,-1.61
2016-11-28T03:38:40.792Z,-1.6
2016-11-28T03:39:51.773Z,-1.61
2016-11-28T03:41:02.960Z,-1.63
2016-11-28T03:42:13.939Z,-1.58
2016-11-28T03:43:25.126Z,-1.6
2016-11-28T03:44:36.125Z,-1.61
2016-11-28T03:45:47.111Z,-1.58
2016-11-28T03:46:58.137Z,-1.67
2016-11-28T03:48:09.129Z,-1.67
2016-11-28T03:49:20.112Z,-1.58
2016-11-28T03:50:31.098Z,-1.58
2016-11-28T03:51:42.110Z,-1.67
2016-11-28T03:52:53.489Z,-1.61
2016-11-28T03:54:04.674Z,-1.58
2016-11-28T03:55:15.859Z,-1.58
2016-11-28T03:56:26.839Z,-1.63
2016-11-28T03:57:37.834Z,-1.56
2016-11-28T03:58:48.814Z,-1.56
2016-11-28T03:59:59.993Z,-1.66
2016-11-28T04:01:11.030Z,-1.63
2016-11-28T04:02:22.033Z,-1.7
2016-11-28T04:03:33.043Z,-1.71
2016-11-28T04:04:44.224Z,-1.66
2016-11-28T04:05:55.406Z,-1.73
2016-11-28T04:07:06.389Z,-1.7
2016-11-28T04:08:17.379Z,-1.7
2016-11-28T04:09:28.569Z,-1.66
2016-11-28T04:10:39.554Z,-1.71
2016-11-28T04:11:50.735Z,-1.74
2016-11-28T04:13:01.717Z,-1.73
2016-11-28T04:14:12.708Z,-1.78
2016-11-28T04:15:23.699Z,-1.81
2016-11-28T04:16:34.682Z,-1.73
2016-11-28T04:17:45.873Z,-1.78
2016-11-28T04:18:56.857Z,-1.73
2016-11-28T04:20:07.842Z,-1.76
2016-11-28T04:21:18.827Z,-1.76
2016-11-28T04:22:29.811Z,-1.76
2016-11-28T04:23:40.791Z,-1.79
2016-11-28T04:24:51.774Z,-1.91
2016-11-28T04:26:02.749Z,-1.85
2016-11-28T04:27:13.739Z,-1.84
2016-11-28T04:28:24.712Z,-1.76
2016-11-28T04:29:35.696Z,-1.84
2016-11-28T04:30:46.886Z,-1.81
2016-11-28T04:31:57.897Z,-1.82
2016-11-28T04:33:08.881Z,-1.82
2016-11-28T04:34:19.869Z,-1.81
2016-11-28T04:35:30.847Z,-1.88
2016-11-28T04:36:41.830Z,-1.81
2016-11-28T04:37:52.802Z,-1.89
2016-11-28T04:39:04.189Z,-1.85
2016-11-28T04:40:15.175Z,-1.89
2016-11-28T04:41:26.160Z,-1.89
2016-11-28T04:42:37.140Z,-1.85
2016-11-28T04:43:48.126Z,-1.88
2016-11-28T04:44:59.103Z,-1.86
2016-11-28T04:46:10.087Z,-1.89
2016-11-28T04:47:21.270Z,-1.91
2016-11-28T04:48:32.276Z,-1.99
2016-11-28T04:49:43.262Z,-1.96
2016-11-28T04:50:54.249Z,-2.05
2016-11-28T04:52:05.430Z,-1.88
2016-11-28T04:53:16.418Z,-1.97
2016-11-28T04:54:27.404Z,-1.97
2016-11-28T04:55:38.380Z,-1.94
2016-11-28T04:56:49.359Z,-1.88
2016-11-28T04:58:00.347Z,-1.89
2016-11-28T04:59:11.325Z,-1.91
2016-11-28T05:00:22.311Z,-1.88
2016-11-28T05:01:33.291Z,-2.02
2016-11-28T05:02:44.303Z,-1.96
2016-11-28T05:03:55.528Z,-1.97
2016-11-28T05:05:06.571Z,-1.91
2016-11-28T05:06:17.755Z,-1.97
2016-11-28T05:07:28.745Z,-2
2016-11-28T05:08:39.737Z,-1.94
2016-11-28T05:09:50.715Z,-1.97
2016-11-28T05:11:01.705Z,-1.89
2016-11-28T05:12:12.681Z,-1.96
2016-11-28T05:13:23.661Z,-2.02
2016-11-28T05:14:34.840Z,-2
2016-11-28T05:15:46.027Z,-2
2016-11-28T05:16:57.008Z,-1.92
2016-11-28T05:18:07.995Z,-1.94
2016-11-28T05:19:18.983Z,-1.97
2016-11-28T05:20:29.966Z,-2
2016-11-28T05:21:40.946Z,-2
2016-11-28T05:22:51.930Z,-1.99
2016-11-28T05:24:03.106Z,-1.99
2016-11-28T05:25:14.090Z,-2.03
2016-11-28T05:26:25.080Z,-2
2016-11-28T05:27:36.055Z,-2.05
2016-11-28T05:28:47.035Z,-2
2016-11-28T05:29:58.016Z,-1.97
2016-11-28T05:31:09.000Z,-1.97
2016-11-28T05:32:20.180Z,-2.02
2016-11-28T05:33:31.152Z,-2.07
2016-11-28T05:34:42.133Z,-2.05
2016-11-28T05:35:53.108Z,-2.05
2016-11-28T05:37:04.090Z,-1.96
2016-11-28T05:38:15.076Z,-1.99
2016-11-28T05:39:26.059Z,-2
2016-11-28T05:40:37.270Z,-2.03
2016-11-28T05:41:48.252Z,-1.96
2016-11-28T05:42:59.229Z,-1.99
2016-11-28T05:44:10.212Z,-2.02
2016-11-28T05:45:21.251Z,-2
2016-11-28T05:46:32.464Z,-2.02
2016-11-28T05:47:43.451Z,-2.02
2016-11-28T05:48:54.632Z,-2
2016-11-28T05:50:05.614Z,-2.09
2016-11-28T05:51:16.594Z,-2.05
2016-11-28T05:52:27.623Z,-2.09
2016-11-28T05:53:38.605Z,-2.12
2016-11-28T05:54:49.798Z,-2.14
2016-11-28T05:56:00.786Z,-2.15
2016-11-28T05:57:11.995Z,-2.12
2016-11-28T05:58:22.971Z,-2.09
2016-11-28T05:59:33.954Z,-2.24
2016-11-28T06:00:44.932Z,-2.23
2016-11-28T06:01:55.906Z,-2.2
2016-11-28T06:03:06.889Z,-2.14
2016-11-28T06:04:17.863Z,-2.2
2016-11-28T06:05:28.842Z,-2.25
2016-11-28T06:06:40.226Z,-2.27
2016-11-28T06:07:51.223Z,-2.18
2016-11-28T06:09:02.208Z,-2.27
2016-11-28T06:10:13.184Z,-2.27
2016-11-28T06:11:24.169Z,-2.32
2016-11-28T06:12:35.150Z,-2.3
2016-11-28T06:13:46.128Z,-2.23
2016-11-28T06:14:57.108Z,-2.37
2016-11-28T06:16:08.131Z,-2.42
2016-11-28T06:17:19.319Z,-2.46
2016-11-28T06:18:30.301Z,-2.53
2016-11-28T06:19:41.486Z,-2.5
2016-11-28T06:20:52.689Z,-2.46
2016-11-28T06:22:03.683Z,-2.49
2016-11-28T06:23:14.667Z,-2.37
2016-11-28T06:24:25.650Z,-2.37
2016-11-28T06:25:36.882Z,-2.32
2016-11-28T06:26:47.871Z,-2.36
2016-11-28T06:27:58.852Z,-2.28
2016-11-28T06:29:09.834Z,-2.3
2016-11-28T06:30:20.826Z,-2.34
2016-11-28T06:31:31.807Z,-2.37
2016-11-28T06:32:42.785Z,-2.42
2016-11-28T06:33:53.794Z,-2.49
2016-11-28T06:35:04.776Z,-2.36
2016-11-28T06:36:15.768Z,-2.4
2016-11-28T06:37:26.746Z,-2.47
2016-11-28T06:38:37.734Z,-2.4
2016-11-28T06:39:48.722Z,-2.49
2016-11-28T06:40:59.960Z,-2.5
2016-11-28T06:42:11.138Z,-2.42
2016-11-28T06:43:22.114Z,-2.62
2016-11-28T06:44:33.089Z,-2.54
2016-11-28T06:45:44.067Z,-2.58
2016-11-28T06:46:55.055Z,-2.57
2016-11-28T06:48:06.028Z,-2.6
2016-11-28T06:49:17.013Z,-2.53
2016-11-28T06:50:28.046Z,-2.61
2016-11-28T06:51:39.235Z,-2.53
2016-11-28T06:52:50.211Z,-2.57
2016-11-28T06:54:01.189Z,-2.61
2016-11-28T06:55:12.166Z,-2.64
2016-11-28T06:56:23.145Z,-2.58
2016-11-28T06:57:34.127Z,-2.62
2016-11-28T06:58:45.312Z,-2.53
2016-11-28T06:59:56.299Z,-2.65
2016-11-28T07:01:07.277Z,-2.55
2016-11-28T07:02:18.258Z,-2.57
2016-11-28T07:03:29.234Z,-2.55
2016-11-28T07:04:40.417Z,-2.54
2016-11-28T07:05:51.604Z,-2.55
2016-11-28T07:07:02.582Z,-2.54
2016-11-28T07:08:13.571Z,-2.65
2016-11-28T07:09:24.551Z,-2.62
2016-11-28T07:10:35.528Z,-2.55
2016-11-28T07:11:46.500Z,-2.53
2016-11-28T07:12:57.493Z,-2.54
2016-11-28T07:14:08.478Z,-2.58
2016-11-28T07:15:19.457Z,-2.57
2016-11-28T07:16:30.643Z,-2.54
2016-11-28T07:17:41.622Z,-2.58
2016-11-28T07:18:52.593Z,-2.53
2016-11-28T07:20:03.576Z,-2.49
2016-11-28T07:21:14.559Z,-2.43
2016-11-28T07:22:25.749Z,-2.37
2016-11-28T07:23:36.725Z,-2.39
2016-11-28T07:24:47.712Z,-2.37
2016-11-28T07:25:58.700Z,-2.39
2016-11-28T07:27:09.671Z,-2.42
2016-11-28T07:28:20.652Z,-2.46
2016-11-28T07:29:31.634Z,-2.47
2016-11-28T07:30:42.612Z,-2.49
2016-11-28T07:31:53.824Z,-2.46
2016-11-28T07:33:04.803Z,-2.43
2016-11-28T07:34:15.982Z,-2.3
2016-11-28T07:35:26.964Z,-2.37
2016-11-28T07:36:38.147Z,-2.37
2016-11-28T07:37:49.129Z,-2.25
2016-11-28T07:39:00.101Z,-2.28
2016-11-28T07:40:11.117Z,-2.21
2016-11-28T07:41:22.105Z,-2.24
2016-11-28T07:42:33.114Z,-2.17
2016-11-28T07:43:44.095Z,-2.15
2016-11-28T07:44:55.106Z,-2.15
2016-11-28T07:46:06.084Z,-2.18
2016-11-28T07:47:17.068Z,-2.07
2016-11-28T07:48:28.248Z,-2.07
2016-11-28T07:49:39.229Z,-2.05
2016-11-28T07:50:50.211Z,-1.99
2016-11-28T07:52:01.392Z,-2
2016-11-28T07:53:12.380Z,-1.86
2016-11-28T07:54:23.363Z,-1.91
2016-11-28T07:55:34.349Z,-1.85
2016-11-28T07:56:45.331Z,-1.81
2016-11-28T07:57:56.304Z,-1.78
2016-11-28T07:59:07.290Z,-1.76
2016-11-28T08:00:18.516Z,-1.78
2016-11-28T08:01:29.507Z,-1.74
2016-11-28T08:02:40.474Z,-1.7
2016-11-28T08:03:51.456Z,-1.49
2016-11-28T08:05:02.641Z,-1.27
2016-11-28T08:06:13.621Z,-1.11
2016-11-28T08:07:24.602Z,-0.95
2016-11-28T08:08:35.582Z,-1.03
2016-11-28T08:09:46.568Z,-0.92
2016-11-28T08:10:57.550Z,-0.95
2016-11-28T08:12:08.532Z,-0.96
2016-11-28T08:13:19.506Z,-0.87
2016-11-28T08:14:30.488Z,-0.87
2016-11-28T08:15:41.470Z,-0.74
2016-11-28T08:16:52.456Z,-0.64
2016-11-28T08:18:03.472Z,-0.7
2016-11-28T08:19:14.460Z,-0.54
2016-11-28T08:20:25.448Z,-0.45
2016-11-28T08:21:36.436Z,-0.34
2016-11-28T08:22:47.414Z,-0.15
2016-11-28T08:23:58.400Z,0.02
2016-11-28T08:25:09.386Z,0.17
2016-11-28T08:26:20.369Z,0.32
2016-11-28T08:27:31.357Z,0.38
2016-11-28T08:28:42.544Z,0.41
2016-11-28T08:29:53.764Z,0.5
2016-11-28T08:31:04.949Z,0.82
2016-11-28T08:32:15.937Z,1.28
2016-11-28T08:33:27.123Z,1.78
2016-11-28T08:34:38.099Z,2.22
2016-11-28T08:35:49.292Z,2.73
2016-11-28T08:37:00.279Z,3.16
2016-11-28T08:38:11.265Z,3.61
2016-11-28T08:39:22.247Z,4.15
2016-11-28T08:40:33.216Z,4.38
2016-11-28T08:41:44.206Z,4.57
2016-11-28T08:42:55.209Z,4.6
2016-11-28T08:44:06.193Z,4.75
2016-11-28T08:45:17.180Z,4.65
2016-11-28T08:46:28.373Z,4.68
2016-11-28T08:47:39.405Z,4.69
2016-11-28T08:48:50.594Z,4.83
2016-11-28T08:50:01.591Z,4.88
2016-11-28T08:51:12.802Z,5.06
2016-11-28T08:52:23.991Z,5.12
2016-11-28T08:53:34.983Z,5.26
2016-11-28T08:54:45.971Z,5.46
2016-11-28T08:55:57.162Z,5.48
2016-11-28T08:57:08.150Z,5.28
2016-11-28T08:58:19.139Z,5.26
2016-11-28T08:59:30.164Z,5.34
2016-11-28T09:00:41.151Z,5.69
2016-11-28T09:01:52.138Z,6.13
2016-11-28T09:03:03.168Z,6.52
2016-11-28T09:04:14.356Z,6.9
2016-11-28T09:05:25.387Z,7.19
2016-11-28T09:06:36.373Z,7.59
2016-11-28T09:07:47.555Z,7.93
2016-11-28T09:08:58.539Z,8.22
2016-11-28T09:10:09.542Z,8.61
2016-11-28T09:11:20.542Z,9.11
2016-11-28T09:12:31.727Z,9.45
2016-11-28T09:13:42.922Z,9.7
2016-11-28T09:14:53.919Z,10.07
2016-11-28T09:16:04.905Z,10.39
2016-11-28T09:17:15.894Z,10.79
2016-11-28T09:18:27.089Z,11.13
2016-11-28T09:19:38.284Z,11.43
2016-11-28T09:20:49.277Z,11.66
2016-11-28T09:22:00.269Z,11.86
2016-11-28T09:23:11.261Z,12.13
2016-11-28T09:24:22.260Z,12.31
2016-11-28T09:25:33.261Z,12.41
2016-11-28T09:26:44.250Z,12.55
2016-11-28T09:27:55.251Z,12.73
2016-11-28T09:29:06.255Z,12.94
2016-11-28T09:30:17.251Z,13.06
2016-11-28T09:31:28.248Z,13.21
2016-11-28T09:32:39.245Z,13.2
2016-11-28T09:33:50.246Z,13.37
2016-11-28T09:35:01.469Z,13.42
2016-11-28T09:36:12.466Z,13.39
2016-11-28T09:37:23.470Z,13.35
2016-11-28T09:38:34.468Z,13.42
2016-11-28T09:39:45.467Z,13.48
2016-11-28T09:40:56.526Z,13.44
2016-11-28T09:42:07.728Z,13.5
2016-11-28T09:43:18.732Z,13.57
2016-11-28T09:44:29.928Z,13.75
2016-11-28T09:45:40.930Z,13.91
2016-11-28T09:46:51.927Z,13.95
2016-11-28T09:48:02.934Z,13.91
2016-11-28T09:49:13.933Z,13.94
2016-11-28T09:50:24.985Z,14.06
2016-11-28T09:51:35.980Z,13.91
2016-11-28T09:52:47.173Z,13.99
2016-11-28T09:53:58.373Z,13.95
2016-11-28T09:55:09.589Z,14.09
2016-11-28T09:56:20.627Z,14.15
2016-11-28T09:57:31.826Z,14.21
2016-11-28T09:58:42.827Z,14.23
2016-11-28T09:59:53.834Z,14.33
2016-11-28T10:01:04.832Z,14.45
2016-11-28T10:02:15.837Z,14.64
2016-11-28T10:03:26.832Z,14.77
2016-11-28T10:04:37.842Z,14.97
2016-11-28T10:05:48.849Z,15.1
2016-11-28T10:07:00.045Z,15.23
2016-11-28T10:08:11.264Z,15.37
2016-11-28T10:09:22.268Z,15.4
2016-11-28T10:10:33.264Z,15.52
2016-11-28T10:11:44.268Z,15.63
2016-11-28T10:12:55.271Z,15.62
2016-11-28T10:14:06.289Z,15.65
2016-11-28T10:15:17.496Z,15.62
2016-11-28T10:16:28.497Z,15.6
2016-11-28T10:17:39.498Z,15.84
2016-11-28T10:18:50.505Z,15.95
2016-11-28T10:20:01.497Z,16.04
2016-11-28T10:21:12.502Z,16.07
2016-11-28T10:22:23.701Z,15.86
2016-11-28T10:23:34.909Z,15.89
2016-11-28T10:24:45.920Z,15.84
2016-11-28T10:25:57.126Z,16.04
2016-11-28T10:27:08.126Z,16.08
2016-11-28T10:28:19.131Z,16.17
2016-11-28T10:29:30.133Z,16.17
2016-11-28T10:30:41.136Z,16.3
2016-11-28T10:31:52.338Z,16.4
2016-11-28T10:33:03.336Z,16.44
2016-11-28T10:34:14.339Z,16.18
2016-11-28T10:35:25.545Z,15.96
2016-11-28T10:36:36.545Z,15.83
2016-11-28T10:37:47.541Z,15.96
2016-11-28T10:38:58.545Z,16
2016-11-28T10:40:09.939Z,16.32
2016-11-28T10:41:20.967Z,16.33
2016-11-28T10:42:31.961Z,16.4
2016-11-28T10:43:42.965Z,16.26
2016-11-28T10:44:53.965Z,16.42
2016-11-28T10:46:05.173Z,16.39
2016-11-28T10:47:16.178Z,16.39
2016-11-28T10:48:27.173Z,16.27
2016-11-28T10:49:38.180Z,16.07
2016-11-28T10:50:49.381Z,16.04
2016-11-28T10:52:00.582Z,15.89
2016-11-28T10:53:11.584Z,15.58
2016-11-28T10:54:22.584Z,15.19
2016-11-28T10:55:33.790Z,14.85
2016-11-28T10:56:44.792Z,14.64
2016-11-28T10:57:55.784Z,14.66
2016-11-28T10:59:06.780Z,14.8
2016-11-28T11:00:17.778Z,14.86
2016-11-28T11:01:28.774Z,14.86
2016-11-28T11:02:39.966Z,14.53
2016-11-28T11:04:06.280Z,13.88
2016-11-28T11:05:17.285Z,13.84
2016-11-28T11:06:28.273Z,13.54
2016-11-28T11:07:39.326Z,13.45
2016-11-28T11:08:50.316Z,13.42
2016-11-28T11:10:01.316Z,12.91
2016-11-28T11:11:12.363Z,12.41
2016-11-28T11:12:23.370Z,12.04
2016-11-28T11:13:34.574Z,11.59
2016-11-28T11:14:45.571Z,11.26
2016-11-28T11:15:56.574Z,11
2016-11-28T11:17:07.574Z,10.85
2016-11-28T11:18:18.580Z,10.79
2016-11-28T11:19:30.066Z,10.52
2016-11-28T11:20:41.060Z,10.28
2016-11-28T11:21:52.065Z,9.96
2016-11-28T11:23:03.464Z,9.9
2016-11-28T11:24:14.467Z,9.75
2016-11-28T11:25:25.463Z,9.64
2016-11-28T11:26:36.663Z,9.35
2016-11-28T11:27:47.860Z,9.27
2016-11-28T11:28:58.854Z,9.2
2016-11-28T11:30:09.849Z,9.17
2016-11-28T11:31:20.840Z,9.16
2016-11-28T11:32:31.880Z,8.77
2016-11-28T11:33:42.905Z,8.46
2016-11-28T11:34:53.893Z,8.22
2016-11-28T11:36:04.885Z,8.17
2016-11-28T11:37:15.879Z,8.28
2016-11-28T11:38:26.863Z,8.42
2016-11-28T11:39:37.854Z,8.52
2016-11-28T11:40:48.851Z,8.39
2016-11-28T11:41:59.839Z,8.26
2016-11-28T11:43:10.827Z,8.19
2016-11-28T11:44:21.814Z,8.22
2016-11-28T11:45:32.801Z,8.35
2016-11-28T11:46:43.794Z,8.42
2016-11-28T11:47:54.993Z,8.43
2016-11-28T11:49:05.984Z,8.24
2016-11-28T11:50:17.374Z,8.26
2016-11-28T11:51:28.370Z,8.28
2016-11-28T11:52:39.363Z,8.36
2016-11-28T11:53:50.362Z,8.34
2016-11-28T11:55:01.351Z,8.4
2016-11-28T11:56:12.377Z,8.44
2016-11-28T11:57:23.368Z,8.21
2016-11-28T11:58:34.356Z,8.04
2016-11-28T11:59:45.381Z,7.68
2016-11-28T12:00:56.430Z,7.22
2016-11-28T12:02:07.623Z,7.08
2016-11-28T12:03:18.614Z,7.11
2016-11-28T12:04:29.610Z,7.29
2016-11-28T12:05:40.598Z,7.4
2016-11-28T12:06:51.582Z,7.37
2016-11-28T12:08:02.768Z,7.55
2016-11-28T12:09:13.762Z,7.56
2016-11-28T12:10:24.754Z,7.58
2016-11-28T12:11:35.740Z,7.55
2016-11-28T12:12:46.724Z,7.59
2016-11-28T12:13:57.706Z,7.58
2016-11-28T12:15:08.695Z,7.67
2016-11-28T12:16:19.904Z,7.33
2016-11-28T12:17:30.915Z,7.22
2016-11-28T12:18:41.900Z,7.16
2016-11-28T12:19:52.896Z,7.23
2016-11-28T12:21:03.882Z,7.39
2016-11-28T12:22:15.073Z,7.74
2016-11-28T12:23:26.066Z,7.93
2016-11-28T12:24:37.054Z,8.19
2016-11-28T12:25:48.057Z,8.46
2016-11-28T12:26:59.044Z,8.54
2016-11-28T12:28:10.028Z,8.67
2016-11-28T12:29:21.019Z,8.74
2016-11-28T12:30:36.470Z,8.89
2016-11-28T12:31:47.459Z,8.83
2016-11-28T12:32:58.477Z,8.57
2016-11-28T12:34:09.661Z,8.44
2016-11-28T12:35:20.651Z,8.61
2016-11-28T12:36:31.641Z,8.61
2016-11-28T12:37:42.629Z,8.44
2016-11-28T12:38:53.628Z,8.43
2016-11-28T12:40:04.628Z,8.28
2016-11-28T12:41:15.620Z,8.24
2016-11-28T12:42:26.605Z,8.01
2016-11-28T12:43:37.588Z,7.98
2016-11-28T12:44:48.782Z,7.88
2016-11-28T12:45:59.774Z,7.91
2016-11-28T12:47:10.755Z,8.04
2016-11-28T12:48:21.744Z,8.17
2016-11-28T12:49:32.739Z,8.28
2016-11-28T12:50:43.731Z,8.31
2016-11-28T12:51:54.724Z,8.31
2016-11-28T12:53:05.714Z,8.32
2016-11-28T12:54:16.698Z,8.29
2016-11-28T12:55:27.688Z,8.21
2016-11-28T12:56:38.683Z,8.25
2016-11-28T12:57:49.673Z,8.24
2016-11-28T12:59:00.661Z,8.35
2016-11-28T13:00:11.655Z,8.19
2016-11-28T13:01:22.642Z,7.92
2016-11-28T13:02:33.631Z,7.82
2016-11-28T13:03:44.625Z,7.7
2016-11-28T13:04:55.608Z,7.73
2016-11-28T13:06:06.596Z,7.78
2016-11-28T13:07:17.579Z,8.04
2016-11-28T13:08:28.561Z,8.16
2016-11-28T13:09:39.547Z,8.26
2016-11-28T13:10:50.529Z,8.25
2016-11-28T13:12:01.515Z,8.21
2016-11-28T13:13:12.505Z,8.11
2016-11-28T13:14:23.488Z,8.06
2016-11-28T13:15:34.472Z,7.88
2016-11-28T13:16:45.466Z,7.83
2016-11-28T13:17:56.459Z,7.77
2016-11-28T13:19:07.446Z,7.74
2016-11-28T13:20:18.423Z,7.7
2016-11-28T13:21:29.617Z,7.7
2016-11-28T13:22:40.610Z,7.7
2016-11-28T13:23:51.601Z,7.52
2016-11-28T13:25:02.631Z,7.41
2016-11-28T13:26:13.619Z,7.54
2016-11-28T13:27:24.606Z,7.7
2016-11-28T13:28:35.588Z,7.68
2016-11-28T13:29:46.570Z,7.58
2016-11-28T13:30:57.541Z,7.45
2016-11-28T13:32:08.528Z,7.37
2016-11-28T13:33:19.740Z,7.55
2016-11-28T13:34:30.722Z,7.41
2016-11-28T13:35:41.711Z,7.54
2016-11-28T13:36:52.700Z,7.54
2016-11-28T13:38:03.687Z,7.48
2016-11-28T13:39:14.813Z,7.34
2016-11-28T13:40:28.962Z,7.29
2016-11-28T13:41:39.950Z,7.13
2016-11-28T13:42:50.941Z,6.83
2016-11-28T13:44:01.955Z,6.57
2016-11-28T13:45:12.951Z,6.4
2016-11-28T13:46:23.935Z,6.14
2016-11-28T13:47:34.933Z,6.1
2016-11-28T13:48:45.927Z,6.13
2016-11-28T13:49:56.923Z,6.03
2016-11-28T13:51:07.913Z,5.92
2016-11-28T13:52:18.891Z,5.95
2016-11-28T13:53:29.881Z,5.87
2016-11-28T13:54:41.068Z,5.72
2016-11-28T13:55:52.075Z,5.55
2016-11-28T13:57:03.298Z,5.54
2016-11-28T13:58:14.282Z,5.33
2016-11-28T13:59:25.272Z,5.16
2016-11-28T14:00:36.253Z,5.2
2016-11-28T14:01:47.240Z,4.97
2016-11-28T14:02:58.429Z,5
2016-11-28T14:04:09.421Z,4.98
2016-11-28T14:05:20.399Z,4.84
2016-11-28T14:06:31.385Z,4.83
2016-11-28T14:07:42.368Z,4.71
2016-11-28T14:08:53.360Z,4.75
2016-11-28T14:10:04.349Z,4.69
2016-11-28T14:11:15.369Z,4.66
2016-11-28T14:12:26.351Z,4.61
2016-11-28T14:13:37.335Z,4.56
2016-11-28T14:14:48.323Z,4.54
2016-11-28T14:15:59.309Z,4.64
2016-11-28T14:17:10.490Z,4.68
2016-11-28T14:18:21.474Z,4.66
2016-11-28T14:19:32.458Z,4.53
2016-11-28T14:20:43.444Z,4.48
2016-11-28T14:21:54.630Z,4.4
2016-11-28T14:23:05.628Z,4.3
2016-11-28T14:24:16.617Z,4.35
2016-11-28T14:25:27.606Z,4.24
2016-11-28T14:26:38.595Z,4.21
2016-11-28T14:27:49.570Z,4.18
2016-11-28T14:29:04.065Z,4.08
2016-11-28T14:30:15.050Z,4.15
2016-11-28T14:31:26.039Z,4.15
2016-11-28T14:32:37.567Z,3.99
2016-11-28T14:33:48.557Z,4.02
2016-11-28T14:34:59.546Z,3.92
2016-11-28T14:36:10.776Z,3.93
2016-11-28T14:37:21.762Z,3.89
2016-11-28T14:38:32.760Z,3.92
2016-11-28T14:39:43.741Z,3.84
2016-11-28T14:40:54.728Z,3.76
2016-11-28T14:42:05.712Z,3.69
2016-11-28T14:43:16.699Z,3.76
2016-11-28T14:44:27.878Z,3.67
2016-11-28T14:45:38.858Z,3.72
2016-11-28T14:46:50.034Z,3.75
2016-11-28T14:48:01.013Z,3.71
2016-11-28T14:49:11.995Z,3.63
2016-11-28T14:50:22.971Z,3.69
2016-11-28T14:51:33.951Z,3.63
2016-11-28T14:52:44.967Z,3.66
2016-11-28T14:53:56.148Z,3.6
2016-11-28T14:55:07.136Z,3.71
2016-11-28T14:56:18.126Z,3.71
2016-11-28T14:57:29.119Z,3.76
2016-11-28T14:58:40.093Z,3.69
2016-11-28T14:59:51.073Z,3.71
2016-11-28T15:01:02.055Z,3.61
2016-11-28T15:02:13.041Z,3.58
2016-11-28T15:03:24.030Z,3.63
2016-11-28T15:04:35.018Z,3.63
2016-11-28T15:05:46.000Z,3.6
2016-11-28T15:06:56.982Z,3.61
2016-11-28T15:08:07.964Z,3.57
2016-11-28T15:09:18.949Z,3.57
2016-11-28T15:10:29.977Z,3.56
2016-11-28T15:11:40.960Z,3.45
2016-11-28T15:12:51.947Z,3.42
2016-11-28T15:14:02.935Z,3.42
2016-11-28T15:15:13.918Z,3.4
2016-11-28T15:16:24.897Z,3.32
2016-11-28T15:17:35.878Z,3.34
2016-11-28T15:18:47.064Z,3.26
2016-11-28T15:19:58.044Z,3.21
2016-11-28T15:21:09.033Z,3.26
2016-11-28T15:22:20.020Z,3.26
2016-11-28T15:23:31.014Z,3.29
2016-11-28T15:24:42.198Z,3.27
2016-11-28T15:25:53.175Z,3.24
2016-11-28T15:27:04.167Z,3.21
2016-11-28T15:28:15.151Z,3.2
2016-11-28T15:29:26.340Z,3.19